Aviation Digital Data Service (ADDS)

Output produced by METARs form (1634 UTC 03 June 2020)
found at http://www.aviationweather.gov/metar/data/
 
Forecast for: ESMS (MALMO/STURUP , SE)
Text: TAF ESMS 031058Z 0312/0412 10010KT CAVOK
Forecast period: 1200 UTC 03 June 2020 to 1200 UTC 04 June 2020
Forecast type: FROM: standard forecast or significant change
Winds: from the E (100 degrees) at 12 MPH (10 knots; 5.1 m/s)
Visibility: 6 or more miles 10+ km)
Ceiling: unknown
Clouds: missing
Weather: NSW  (no significant weather)
Text: TEMPO 0407/0412 10015G30KT
Forecast period: 0700 to 1200 UTC 04 June 2020
Forecast type: TEMPORARY: The following changes expected for less than half the time period
Winds: from the E (100 degrees) at 17 MPH (15 knots; 7.7 m/s)
gusting to 34 MPH (30 knots; 15.4 m/s)
Visibility: missing
Ceiling: unknown
Clouds: missing
Weather: no significant weather forecast for this period